createdAt,value
2018-04-17T00:01:34.084Z,9.50
2018-04-17T00:04:01.593Z,9.40
2018-04-17T00:06:29.877Z,9.40
2018-04-17T00:08:58.153Z,9.50
2018-04-17T00:11:26.422Z,9.40
2018-04-17T00:13:54.696Z,9.40
2018-04-17T00:16:22.976Z,9.30
2018-04-17T00:18:51.263Z,9.30
2018-04-17T00:21:18.823Z,9.20
2018-04-17T00:23:46.428Z,9.20
2018-04-17T00:26:13.939Z,9.20
2018-04-17T00:28:41.444Z,9.20
2018-04-17T00:31:08.969Z,9.10
2018-04-17T00:33:36.500Z,9.10
2018-04-17T00:36:04.040Z,9.00
2018-04-17T00:38:31.566Z,9.10
2018-04-17T00:40:59.152Z,9.00
2018-04-17T00:43:26.672Z,9.00
2018-04-17T00:45:54.198Z,9.00
2018-04-17T00:48:21.719Z,9.00
2018-04-17T00:50:49.220Z,8.90
2018-04-17T00:53:29.224Z,8.80
2018-04-17T00:55:56.760Z,8.80
2018-04-17T00:58:24.276Z,8.80
2018-04-17T01:00:52.556Z,8.90
2018-04-17T01:03:20.828Z,8.80
2018-04-17T01:05:49.238Z,8.90
2018-04-17T01:08:16.740Z,8.90
2018-04-17T01:10:44.258Z,8.80
2018-04-17T01:13:11.763Z,8.60
2018-04-17T01:15:39.266Z,8.60
2018-04-17T01:18:06.805Z,8.60
2018-04-17T01:20:35.108Z,8.60
2018-04-17T01:23:02.642Z,8.50
2018-04-17T01:25:30.154Z,8.60
2018-04-17T01:27:57.670Z,8.50
2018-04-17T01:30:25.216Z,8.50
2018-04-17T01:32:52.738Z,8.50
2018-04-17T01:35:20.268Z,8.60
2018-04-17T01:37:47.784Z,8.60
2018-04-17T01:40:15.324Z,8.60
2018-04-17T01:42:42.844Z,8.60
2018-04-17T01:45:10.368Z,8.60
2018-04-17T01:47:38.037Z,8.70
2018-04-17T01:50:05.564Z,8.70
2018-04-17T01:52:33.171Z,8.70
2018-04-17T01:55:01.463Z,8.70
2018-04-17T01:57:28.975Z,8.70
2018-04-17T01:59:57.267Z,8.60
2018-04-17T02:02:24.818Z,8.60
2018-04-17T02:04:52.377Z,8.60
2018-04-17T02:07:20.657Z,8.60
2018-04-17T02:09:48.217Z,8.60
2018-04-17T02:12:15.732Z,8.50
2018-04-17T02:14:43.259Z,8.50
2018-04-17T02:17:10.785Z,8.50
2018-04-17T02:19:38.331Z,8.50
2018-04-17T02:22:06.625Z,8.60
2018-04-17T02:24:34.213Z,8.50
2018-04-17T02:27:01.740Z,8.60
2018-04-17T02:29:29.253Z,8.50
2018-04-17T02:31:56.777Z,8.50
2018-04-17T02:34:24.315Z,8.50
2018-04-17T02:36:52.597Z,8.50
2018-04-17T02:39:20.131Z,8.50
2018-04-17T02:41:47.831Z,8.50
2018-04-17T02:44:15.337Z,8.50
2018-04-17T02:46:43.647Z,8.40
2018-04-17T02:49:11.937Z,8.40
2018-04-17T02:51:39.517Z,8.40
2018-04-17T02:54:07.050Z,8.30
2018-04-17T02:56:34.582Z,8.30
2018-04-17T02:59:02.114Z,8.30
2018-04-17T03:01:29.652Z,8.20
2018-04-17T03:03:57.178Z,8.20
2018-04-17T03:06:24.694Z,8.20
2018-04-17T03:08:52.215Z,8.20
2018-04-17T03:11:19.742Z,8.10
2018-04-17T03:13:47.264Z,8.20
2018-04-17T03:16:14.767Z,8.20
2018-04-17T03:18:42.288Z,8.20
2018-04-17T03:21:09.807Z,8.20
2018-04-17T03:23:37.348Z,8.20
2018-04-17T03:26:04.872Z,8.20
2018-04-17T03:28:32.379Z,8.20
2018-04-17T03:30:59.898Z,8.30
2018-04-17T03:33:27.435Z,8.30
2018-04-17T03:35:54.945Z,8.30
2018-04-17T03:38:22.465Z,8.30
2018-04-17T03:40:50.770Z,8.30
2018-04-17T03:43:18.290Z,8.30
2018-04-17T03:45:45.846Z,8.30
2018-04-17T03:48:13.363Z,8.30
2018-04-17T03:50:40.885Z,8.40
2018-04-17T03:53:08.423Z,8.40
2018-04-17T03:55:35.953Z,8.40
2018-04-17T03:58:03.485Z,8.40
2018-04-17T04:00:30.993Z,8.40
2018-04-17T04:02:58.561Z,8.40
2018-04-17T04:05:26.067Z,8.40
2018-04-17T04:07:53.589Z,8.40
2018-04-17T04:10:21.901Z,8.40
2018-04-17T04:12:49.439Z,8.40
2018-04-17T04:15:17.713Z,8.40
2018-04-17T04:21:00.761Z,8.40
2018-04-17T04:23:40.134Z,8.40
2018-04-17T04:26:28.975Z,8.40
2018-04-17T04:28:56.507Z,8.40
2018-04-17T04:31:24.042Z,8.40
2018-04-17T04:33:51.689Z,8.40
2018-04-17T04:36:19.228Z,8.30
2018-04-17T04:38:46.739Z,8.40
2018-04-17T04:41:14.298Z,8.40
2018-04-17T04:43:42.569Z,8.40
2018-04-17T04:46:10.849Z,8.40
2018-04-17T04:48:39.146Z,8.30
2018-04-17T04:51:06.669Z,8.30
2018-04-17T04:53:34.213Z,8.40
2018-04-17T04:56:01.726Z,8.40
2018-04-17T04:58:29.275Z,8.40
2018-04-17T05:00:56.788Z,8.40
2018-04-17T05:03:24.313Z,8.40
2018-04-17T05:05:51.835Z,8.40
2018-04-17T05:08:19.353Z,8.40
2018-04-17T05:10:46.857Z,8.40
2018-04-17T05:13:14.371Z,8.40
2018-04-17T05:15:41.904Z,8.50
2018-04-17T05:18:09.421Z,8.50
2018-04-17T05:20:37.715Z,8.50
2018-04-17T05:23:05.230Z,8.50
2018-04-17T05:25:32.732Z,8.50
2018-04-17T05:28:00.271Z,8.50
2018-04-17T05:30:28.557Z,8.60
2018-04-17T05:32:56.076Z,8.50
2018-04-17T05:35:23.590Z,8.60
2018-04-17T05:37:51.132Z,8.60
2018-04-17T05:40:19.414Z,8.70
2018-04-17T05:42:46.952Z,8.60
2018-04-17T05:45:14.504Z,8.70
2018-04-17T05:47:42.817Z,8.80
2018-04-17T05:50:10.356Z,8.80
2018-04-17T05:52:37.896Z,8.80
2018-04-17T05:55:06.296Z,8.90
2018-04-17T05:57:33.814Z,8.90
2018-04-17T06:00:01.325Z,9.00
2018-04-17T06:02:29.024Z,9.00
2018-04-17T06:04:56.542Z,9.00
2018-04-17T06:07:24.069Z,9.10
2018-04-17T06:09:51.598Z,9.20
2018-04-17T06:12:19.136Z,9.20
2018-04-17T06:14:46.691Z,9.30
2018-04-17T06:17:14.227Z,9.30
2018-04-17T06:19:42.526Z,9.40
2018-04-17T06:22:10.044Z,9.40
2018-04-17T06:24:37.550Z,9.50
2018-04-17T06:27:05.079Z,9.60
2018-04-17T06:29:32.622Z,9.60
2018-04-17T06:32:00.140Z,9.70
2018-04-17T06:34:27.668Z,9.70
2018-04-17T06:36:55.232Z,9.80
2018-04-17T06:39:22.776Z,9.90
2018-04-17T06:41:50.329Z,9.90
2018-04-17T06:44:17.853Z,10.00
2018-04-17T06:46:45.384Z,10.10
2018-04-17T06:49:12.931Z,10.20
2018-04-17T06:51:40.453Z,10.30
2018-04-17T06:54:08.944Z,10.50
2018-04-17T06:56:36.539Z,10.40
2018-04-17T06:59:04.059Z,10.50
2018-04-17T07:01:32.340Z,10.70
2018-04-17T07:03:59.893Z,10.60
2018-04-17T07:06:27.458Z,10.80
2018-04-17T07:08:55.074Z,10.90
2018-04-17T07:11:22.616Z,10.90
2018-04-17T07:13:50.140Z,11.10
2018-04-17T07:16:17.671Z,11.10
2018-04-17T07:18:45.971Z,11.40
2018-04-17T07:21:13.518Z,11.40
2018-04-17T07:23:41.098Z,11.40
2018-04-17T07:26:09.346Z,11.60
2018-04-17T07:28:37.634Z,11.70
2018-04-17T07:31:05.913Z,11.70
2018-04-17T07:33:33.440Z,11.70
2018-04-17T07:36:00.962Z,11.80
2018-04-17T07:38:28.528Z,11.90
2018-04-17T07:40:56.084Z,12.00
2018-04-17T07:43:24.388Z,12.10
2018-04-17T07:45:51.924Z,12.00
2018-04-17T07:48:31.378Z,12.20
2018-04-17T07:50:58.960Z,12.30
2018-04-17T07:53:27.274Z,12.40
2018-04-17T07:55:54.808Z,12.40
2018-04-17T07:58:23.099Z,12.60
2018-04-17T08:00:50.631Z,12.50
2018-04-17T08:03:18.148Z,12.60
2018-04-17T08:05:45.673Z,12.70
2018-04-17T08:08:13.192Z,12.80
2018-04-17T08:10:40.728Z,12.80
2018-04-17T08:13:08.242Z,12.90
2018-04-17T08:15:35.806Z,13.00
2018-04-17T08:18:03.316Z,13.00
2018-04-17T08:20:31.090Z,13.10
2018-04-17T08:22:58.618Z,13.10
2018-04-17T08:25:26.160Z,13.20
2018-04-17T08:27:53.749Z,13.30
2018-04-17T08:30:21.242Z,13.40
2018-04-17T08:32:49.530Z,13.60
2018-04-17T08:35:17.808Z,13.60
2018-04-17T08:37:46.100Z,13.70
2018-04-17T08:40:13.640Z,13.70
2018-04-17T08:42:41.161Z,13.80
2018-04-17T08:45:08.728Z,13.80
2018-04-17T08:47:36.251Z,13.90
2018-04-17T08:50:03.824Z,13.90
2018-04-17T08:52:31.337Z,14.00
2018-04-17T08:54:58.916Z,14.00
2018-04-17T08:57:26.556Z,14.10
2018-04-17T08:59:54.101Z,14.10
2018-04-17T09:02:21.616Z,14.20
2018-04-17T09:04:49.159Z,14.20
2018-04-17T09:07:16.741Z,14.20
2018-04-17T09:09:44.284Z,14.20
2018-04-17T09:12:11.794Z,14.30
2018-04-17T09:14:39.493Z,14.40
2018-04-17T09:17:07.125Z,14.50
2018-04-17T09:19:34.734Z,14.50
2018-04-17T09:22:02.255Z,14.60
2018-04-17T09:24:29.899Z,14.70
2018-04-17T09:26:57.447Z,14.80
2018-04-17T09:29:24.970Z,14.90
2018-04-17T09:31:52.525Z,14.80
2018-04-17T09:34:20.062Z,14.80
2018-04-17T09:36:47.633Z,14.80
2018-04-17T09:39:15.179Z,14.90
2018-04-17T09:41:42.720Z,14.90
2018-04-17T09:44:10.244Z,15.10
2018-04-17T09:46:38.072Z,15.10
2018-04-17T09:49:05.602Z,15.20
2018-04-17T09:51:33.900Z,15.30
2018-04-17T09:54:01.435Z,15.30
2018-04-17T09:56:28.969Z,15.40
2018-04-17T09:58:56.493Z,15.40
2018-04-17T10:01:24.045Z,15.40
2018-04-17T10:03:51.559Z,15.50
2018-04-17T10:06:19.903Z,15.60
2018-04-17T10:08:47.455Z,15.60
2018-04-17T10:11:14.970Z,15.60
2018-04-17T10:13:42.500Z,15.80
2018-04-17T10:16:10.046Z,15.80
2018-04-17T10:18:37.574Z,15.90
2018-04-17T10:21:05.140Z,16.00
2018-04-17T10:23:32.688Z,16.00
2018-04-17T10:26:00.208Z,16.10
2018-04-17T10:28:28.546Z,16.20
2018-04-17T10:30:56.087Z,16.10
2018-04-17T10:33:23.617Z,16.20
2018-04-17T10:35:51.173Z,16.20
2018-04-17T10:38:18.760Z,16.20
2018-04-17T10:40:46.278Z,16.30
2018-04-17T10:43:14.574Z,16.40
2018-04-17T10:45:42.083Z,16.40
2018-04-17T10:48:09.683Z,16.50
2018-04-17T10:50:37.283Z,16.60
2018-04-17T10:53:04.820Z,16.60
2018-04-17T10:55:32.383Z,16.60
2018-04-17T10:57:59.932Z,16.70
2018-04-17T11:00:27.476Z,16.70
2018-04-17T11:02:55.753Z,16.60
2018-04-17T11:05:23.282Z,16.60
2018-04-17T11:07:50.795Z,16.70
2018-04-17T11:10:18.319Z,16.70
2018-04-17T11:12:45.848Z,16.80
2018-04-17T11:15:13.408Z,16.90
2018-04-17T11:17:40.932Z,16.80
2018-04-17T11:20:08.462Z,17.00
2018-04-17T11:22:36.737Z,17.10
2018-04-17T11:25:05.049Z,17.10
2018-04-17T11:27:32.558Z,17.10
2018-04-17T11:30:00.839Z,17.20
2018-04-17T11:32:28.543Z,17.20
2018-04-17T11:34:56.065Z,17.30
2018-04-17T11:37:24.367Z,17.30
2018-04-17T11:39:51.927Z,17.30
2018-04-17T11:42:19.437Z,17.30
2018-04-17T11:44:46.995Z,17.40
2018-04-17T11:47:14.527Z,17.60
2018-04-17T11:49:42.052Z,17.60
2018-04-17T11:52:09.565Z,17.90
2018-04-17T11:54:37.094Z,17.90
2018-04-17T11:57:04.641Z,18.10
2018-04-17T11:59:32.269Z,18.20
2018-04-17T12:02:00.552Z,18.20
2018-04-17T12:04:28.079Z,18.20
2018-04-17T12:06:55.599Z,18.20
2018-04-17T12:09:23.151Z,18.30
2018-04-17T12:11:50.702Z,18.40
2018-04-17T12:14:18.246Z,18.40
2018-04-17T12:16:45.776Z,18.50
2018-04-17T12:19:13.309Z,18.60
2018-04-17T12:21:40.839Z,18.60
2018-04-17T12:24:08.407Z,18.60
2018-04-17T12:26:35.937Z,18.70
2018-04-17T12:29:03.478Z,18.90
2018-04-17T12:31:30.998Z,19.10
2018-04-17T12:33:58.616Z,19.30
2018-04-17T12:36:26.184Z,19.30
2018-04-17T12:38:53.704Z,19.20
2018-04-17T12:41:21.228Z,19.20
2018-04-17T12:43:49.525Z,19.70
2018-04-17T12:46:17.036Z,19.60
2018-04-17T12:48:44.576Z,19.90
2018-04-17T12:51:12.105Z,19.80
2018-04-17T12:53:39.622Z,19.70
2018-04-17T12:56:07.151Z,20.00
2018-04-17T12:58:34.683Z,20.00
2018-04-17T13:01:02.212Z,20.20
2018-04-17T13:03:29.727Z,20.30
2018-04-17T13:05:58.007Z,20.50
2018-04-17T13:08:25.538Z,20.40
2018-04-17T13:10:53.852Z,21.10
2018-04-17T13:13:21.367Z,21.00
2018-04-17T13:15:49.088Z,21.70
2018-04-17T13:18:16.618Z,21.90
2018-04-17T13:20:44.138Z,21.80
2018-04-17T13:23:13.173Z,21.60
2018-04-17T13:25:40.707Z,21.60
2018-04-17T13:28:08.428Z,21.70
2018-04-17T13:30:35.956Z,21.90
2018-04-17T13:33:03.469Z,22.20
2018-04-17T13:35:31.015Z,22.60
2018-04-17T13:37:58.561Z,22.50
2018-04-17T13:40:26.081Z,22.60
2018-04-17T13:42:53.681Z,22.80
2018-04-17T13:45:21.202Z,23.10
2018-04-17T13:47:48.737Z,23.50
2018-04-17T13:50:17.072Z,22.60
2018-04-17T13:52:44.591Z,22.60
2018-04-17T13:55:12.124Z,23.10
2018-04-17T13:57:40.425Z,23.50
2018-04-17T14:00:09.039Z,23.50
2018-04-17T14:02:36.577Z,23.50
2018-04-17T14:05:04.107Z,24.00
2018-04-17T14:07:31.661Z,24.10
2018-04-17T14:09:59.239Z,24.40
2018-04-17T14:12:26.788Z,24.70
2018-04-17T14:14:55.066Z,25.30
2018-04-17T14:17:23.421Z,25.40
2018-04-17T14:19:51.014Z,25.40
2018-04-17T14:22:19.318Z,25.70
2018-04-17T14:24:46.863Z,25.60
2018-04-17T14:27:14.413Z,25.50
2018-04-17T14:29:42.700Z,25.60
2018-04-17T14:32:10.199Z,25.50
2018-04-17T14:34:37.727Z,25.40
2018-04-17T14:37:05.267Z,25.00
2018-04-17T14:39:32.785Z,24.70
2018-04-17T14:42:00.343Z,24.20
2018-04-17T14:44:27.893Z,23.60
2018-04-17T14:46:55.428Z,23.10
2018-04-17T14:49:22.978Z,23.20
2018-04-17T14:51:50.532Z,23.60
2018-04-17T14:54:18.057Z,23.80
2018-04-17T14:56:46.358Z,23.90
2018-04-17T14:59:13.881Z,23.90
2018-04-17T15:01:41.504Z,24.10
2018-04-17T15:04:09.041Z,24.30
2018-04-17T15:06:36.561Z,24.70
2018-04-17T15:09:04.086Z,24.60
2018-04-17T15:11:31.604Z,24.40
2018-04-17T15:13:59.123Z,24.20
2018-04-17T15:16:27.405Z,23.70
2018-04-17T15:18:54.961Z,23.60
2018-04-17T15:21:24.031Z,23.30
2018-04-17T15:23:51.576Z,23.30
2018-04-17T15:26:19.149Z,23.40
2018-04-17T15:28:46.679Z,23.60
2018-04-17T15:31:16.485Z,23.40
2018-04-17T15:33:44.014Z,23.40
2018-04-17T15:36:11.544Z,23.40
2018-04-17T15:38:39.067Z,23.10
2018-04-17T15:41:06.599Z,23.30
2018-04-17T15:43:34.145Z,23.40
2018-04-17T15:46:01.701Z,23.40
2018-04-17T15:48:29.232Z,23.50
2018-04-17T15:50:56.797Z,23.40
2018-04-17T15:53:24.344Z,23.30
2018-04-17T15:55:51.872Z,23.20
2018-04-17T15:58:19.400Z,23.10
2018-04-17T16:00:46.930Z,23.10
2018-04-17T16:03:14.473Z,23.10
2018-04-17T16:05:42.012Z,23.10
2018-04-17T16:08:09.560Z,23.10
2018-04-17T16:10:37.095Z,23.30
2018-04-17T16:13:04.660Z,23.40
2018-04-17T16:15:32.212Z,23.40
2018-04-17T16:17:59.917Z,23.20
2018-04-17T16:20:27.460Z,23.00
2018-04-17T16:22:55.060Z,23.00
2018-04-17T16:25:23.108Z,23.20
2018-04-17T16:27:50.646Z,23.10
2018-04-17T16:30:18.167Z,22.90
2018-04-17T16:32:45.678Z,22.90
2018-04-17T16:35:13.192Z,22.70
2018-04-17T16:37:40.708Z,22.60
2018-04-17T16:40:08.228Z,22.50
2018-04-17T16:42:36.545Z,22.40
2018-04-17T16:45:04.083Z,22.40
2018-04-17T16:47:31.623Z,22.30
2018-04-17T16:49:59.953Z,22.10
2018-04-17T16:52:27.488Z,22.10
2018-04-17T16:54:54.999Z,21.90
2018-04-17T16:57:22.569Z,21.90
2018-04-17T16:59:50.134Z,21.80
2018-04-17T17:02:17.656Z,21.70
2018-04-17T17:04:45.180Z,21.50
2018-04-17T17:07:12.717Z,21.40
2018-04-17T17:09:40.254Z,21.40
2018-04-17T17:12:08.533Z,21.20
2018-04-17T17:14:36.836Z,21.10
2018-04-17T17:17:04.368Z,21.10
2018-04-17T17:19:31.980Z,21.10
2018-04-17T17:21:59.520Z,21.00
2018-04-17T17:24:27.054Z,21.00
2018-04-17T17:26:55.352Z,20.90
2018-04-17T17:29:23.170Z,20.90
2018-04-17T17:31:50.693Z,20.90
2018-04-17T17:34:18.234Z,20.80
2018-04-17T17:36:45.772Z,20.80
2018-04-17T17:39:14.076Z,20.60
2018-04-17T17:41:41.617Z,20.60
2018-04-17T17:44:09.191Z,20.60
2018-04-17T17:46:37.442Z,20.40
2018-04-17T17:49:05.742Z,20.40
2018-04-17T17:51:33.273Z,20.30
2018-04-17T17:54:00.845Z,20.30
2018-04-17T17:56:28.372Z,20.30
2018-04-17T17:58:56.090Z,20.20
2018-04-17T18:01:24.056Z,20.20
2018-04-17T18:03:51.645Z,20.20
2018-04-17T18:06:19.159Z,20.10
2018-04-17T18:08:46.701Z,20.10
2018-04-17T18:11:15.036Z,20.00
2018-04-17T18:13:42.588Z,20.00
2018-04-17T18:16:10.145Z,20.10
2018-04-17T18:18:37.702Z,20.00
2018-04-17T18:21:05.298Z,20.00
2018-04-17T18:23:32.850Z,20.00
2018-04-17T18:26:00.381Z,19.90
2018-04-17T18:28:28.706Z,19.80
2018-04-17T18:30:56.243Z,19.80
2018-04-17T18:33:23.796Z,19.80
2018-04-17T18:35:51.362Z,19.70
2018-04-17T18:38:18.944Z,19.70
2018-04-17T18:40:47.313Z,19.60
2018-04-17T18:43:15.636Z,19.60
2018-04-17T18:45:43.201Z,19.50
2018-04-17T18:48:10.753Z,19.50
2018-04-17T18:50:38.294Z,19.50
2018-04-17T18:53:05.849Z,19.40
2018-04-17T18:55:33.432Z,19.30
2018-04-17T18:58:01.009Z,19.30
2018-04-17T19:00:28.579Z,19.30
2018-04-17T19:02:56.203Z,19.20
2018-04-17T19:05:23.767Z,19.10
2018-04-17T19:07:51.504Z,19.10
2018-04-17T19:10:19.145Z,19.10
2018-04-17T19:12:47.545Z,18.90
2018-04-17T19:15:15.175Z,18.90
2018-04-17T19:17:42.726Z,18.90
2018-04-17T19:20:10.331Z,18.80
2018-04-17T19:22:37.904Z,18.70
2018-04-17T19:25:05.531Z,18.70
2018-04-17T19:27:33.115Z,18.60
2018-04-17T19:30:01.564Z,18.50
2018-04-17T19:32:29.443Z,18.50
2018-04-17T19:34:56.997Z,18.50
2018-04-17T19:37:25.385Z,18.30
2018-04-17T19:39:52.968Z,18.30
2018-04-17T19:42:20.527Z,18.20
2018-04-17T19:44:48.147Z,18.10
2018-04-17T19:47:16.610Z,18.00
2018-04-17T19:49:44.188Z,18.00
2018-04-17T19:52:12.506Z,18.00
2018-04-17T19:54:40.083Z,18.00
2018-04-17T19:57:07.681Z,17.90
2018-04-17T19:59:35.241Z,17.90
2018-04-17T20:02:03.568Z,17.80
2018-04-17T20:04:31.106Z,17.80
2018-04-17T20:06:58.704Z,17.80
2018-04-17T20:09:26.310Z,17.80
2018-04-17T20:11:54.602Z,17.70
2018-04-17T20:14:22.191Z,17.60
2018-04-17T20:16:49.732Z,17.70
2018-04-17T20:19:17.298Z,17.60
2018-04-17T20:21:44.843Z,17.50
2018-04-17T20:24:12.426Z,17.60
2018-04-17T20:26:39.992Z,17.60
2018-04-17T20:29:07.566Z,17.50
2018-04-17T20:31:35.896Z,17.40
2018-04-17T20:34:03.440Z,17.30
2018-04-17T20:36:30.979Z,17.30
2018-04-17T20:38:58.524Z,17.30
2018-04-17T20:41:26.060Z,17.20
2018-04-17T20:43:53.604Z,17.20
2018-04-17T20:46:21.148Z,17.20
2018-04-17T20:48:48.702Z,17.10
2018-04-17T20:51:16.239Z,17.00
2018-04-17T20:53:43.771Z,17.00
2018-04-17T20:56:11.369Z,16.90
2018-04-17T20:58:38.919Z,16.90
2018-04-17T21:01:07.216Z,16.80
2018-04-17T21:03:34.804Z,16.80
2018-04-17T21:06:02.361Z,16.80
2018-04-17T21:08:29.907Z,16.80
2018-04-17T21:10:57.443Z,16.80
2018-04-17T21:13:24.995Z,16.90
2018-04-17T21:15:53.296Z,16.70
2018-04-17T21:18:20.829Z,16.70
2018-04-17T21:20:49.116Z,16.60
2018-04-17T21:23:17.412Z,16.60
2018-04-17T21:25:44.946Z,16.50
2018-04-17T21:28:13.231Z,16.50
2018-04-17T21:30:41.116Z,16.50
2018-04-17T21:33:08.700Z,16.40
2018-04-17T21:35:36.244Z,16.40
2018-04-17T21:38:03.767Z,16.30
2018-04-17T21:40:31.311Z,16.30
2018-04-17T21:42:58.889Z,16.20
2018-04-17T21:45:26.421Z,16.20
2018-04-17T21:47:53.962Z,16.10
2018-04-17T21:50:21.520Z,16.10
2018-04-17T21:52:49.051Z,16.10
2018-04-17T21:55:16.586Z,16.00
2018-04-17T21:57:44.136Z,16.00
2018-04-17T22:00:12.426Z,15.90
2018-04-17T22:02:39.944Z,15.90
2018-04-17T22:05:08.258Z,15.80
2018-04-17T22:07:35.796Z,15.70
2018-04-17T22:10:03.400Z,15.70
2018-04-17T22:12:30.927Z,15.60
2018-04-17T22:14:58.491Z,15.60
2018-04-17T22:17:26.026Z,15.60
2018-04-17T22:19:53.550Z,15.60
2018-04-17T22:22:21.094Z,15.50
2018-04-17T22:24:48.617Z,15.40
2018-04-17T22:27:16.157Z,15.40
2018-04-17T22:29:44.446Z,15.40
2018-04-17T22:32:12.748Z,15.30
2018-04-17T22:34:40.274Z,15.20
2018-04-17T22:37:07.826Z,15.30
2018-04-17T22:39:36.114Z,15.10
2018-04-17T22:42:04.527Z,15.10
2018-04-17T22:44:32.058Z,15.00
2018-04-17T22:46:59.613Z,15.00
2018-04-17T22:49:27.150Z,15.00
2018-04-17T22:51:54.677Z,15.00
2018-04-17T22:54:22.256Z,14.90
2018-04-17T22:56:49.780Z,14.80
2018-04-17T22:59:17.302Z,14.80
2018-04-17T23:01:44.828Z,14.70
2018-04-17T23:04:12.359Z,14.60
2018-04-17T23:06:40.298Z,14.50
2018-04-17T23:09:07.821Z,14.60
2018-04-17T23:11:35.340Z,14.60
2018-04-17T23:14:02.853Z,14.60
2018-04-17T23:16:31.138Z,14.60
2018-04-17T23:18:59.515Z,14.60
2018-04-17T23:21:27.784Z,14.60
2018-04-17T23:23:56.064Z,14.60
2018-04-17T23:26:24.347Z,14.60
2018-04-17T23:28:52.619Z,14.50
2018-04-17T23:31:21.224Z,14.50
2018-04-17T23:33:48.770Z,14.50
2018-04-17T23:36:16.302Z,14.50
2018-04-17T23:38:43.823Z,14.50
2018-04-17T23:41:11.329Z,14.40
2018-04-17T23:43:39.617Z,14.30
2018-04-17T23:46:07.898Z,14.30
2018-04-17T23:48:36.186Z,14.20
2018-04-17T23:51:03.733Z,14.20
2018-04-17T23:53:31.254Z,14.20
2018-04-17T23:55:58.779Z,14.20
2018-04-17T23:58:26.308Z,14.20
